メインページ
METAR-TAF:

METAR-TAF

空港 :

Provincetown Municipal Airport

プロビンスタウン, マサチューセッツ州, アメリカ合衆国

緯度: 42-04N, 経度: 070-13W, 海抜: 2m

現時点の気象観測

当レポートは25分前の05:56(UTC)に作成
北東の風 23kt、最大30ktの突風を伴う
気温 6°C
湿度 93%
気圧 1011 hPa
視程: 9.7km
高度1100ftの曇り

METAR: KPVC 040556Z AUTO 05023G30KT 6SM BR OVC011 06/05 A2986 RMK AO2 PK WND 05031/0510 SLP110 6//// T00560050 10061 20056 51010 PNO $

時間: 02:21 (06:21 UTC)


TAF: 見つかりません

4,000以上の空港の気象観測と天気予報(METAR報とTAF報)

利用可能な観測所は地図上に黄色い丸と赤い丸で示す。

丸の上にカーソルを重ねると観測所名を参照できる。

次にクリックすると気象観測と天気予報を参照できる。

マップの切り替え:黒色「×」印の緑ボタンをクリックして拡大、「-」印の緑ボタンをクリックして縮小、緑色の三角印をクリックして隣りの地図に切り替え


METAR-TAF: